createdAt,value
2022-11-16T00:01:09.347Z,4.80
2022-11-16T00:03:37.329Z,5.60
2022-11-16T00:06:07.445Z,6.60
2022-11-16T00:08:37.992Z,6.40
2022-11-16T00:11:20.327Z,5.90
2022-11-16T00:13:47.540Z,6.40
2022-11-16T00:16:22.075Z,8.00
2022-11-16T00:18:49.432Z,6.60
2022-11-16T00:21:16.880Z,5.00
2022-11-16T00:23:44.221Z,5.90
2022-11-16T00:26:15.184Z,4.80
2022-11-16T00:28:42.527Z,5.00
2022-11-16T00:31:12.954Z,5.40
2022-11-16T00:33:41.923Z,4.50
2022-11-16T00:36:12.275Z,6.00
2022-11-16T00:38:42.970Z,6.20
2022-11-16T00:41:14.049Z,6.10
2022-11-16T00:43:43.577Z,5.90
2022-11-16T00:46:18.792Z,5.30
2022-11-16T00:48:46.038Z,6.10
2022-11-16T00:51:15.445Z,5.20
2022-11-16T00:53:48.374Z,5.60
2022-11-16T00:56:19.321Z,7.40
2022-11-16T00:58:46.511Z,6.10
2022-11-16T01:03:57.251Z,4.70
2022-11-16T01:06:24.794Z,6.50
2022-11-16T01:08:53.502Z,5.60
2022-11-16T01:11:43.642Z,4.60
2022-11-16T01:14:14.426Z,5.40
2022-11-16T01:16:45.523Z,6.40
2022-11-16T01:19:14.783Z,4.60
2022-11-16T01:21:42.264Z,5.90
2022-11-16T01:24:10.447Z,5.20
2022-11-16T01:26:38.750Z,6.00
2022-11-16T01:29:06.584Z,5.00
2022-11-16T01:31:40.104Z,6.20
2022-11-16T01:34:08.056Z,5.90
2022-11-16T01:36:37.192Z,4.70
2022-11-16T01:39:06.045Z,5.10
2022-11-16T01:41:49.534Z,5.10
2022-11-16T01:44:34.886Z,5.40
2022-11-16T01:47:24.721Z,5.00
2022-11-16T01:50:39.191Z,5.00
2022-11-16T01:53:17.566Z,5.80
2022-11-16T01:56:00.803Z,6.90
2022-11-16T01:58:39.670Z,6.70
2022-11-16T02:01:24.069Z,5.30
2022-11-16T02:04:02.699Z,5.50
2022-11-16T02:07:11.918Z,4.40
2022-11-16T02:10:34.942Z,4.20
2022-11-16T02:13:30.904Z,4.00
2022-11-16T02:16:34.396Z,5.00
2022-11-16T02:19:38.595Z,5.00
2022-11-16T02:22:53.938Z,5.90
2022-11-16T02:25:47.835Z,5.40
2022-11-16T02:28:52.175Z,4.00
2022-11-16T02:31:30.143Z,3.50
2022-11-16T02:34:00.965Z,4.90
2022-11-16T02:36:28.656Z,4.90
2022-11-16T02:39:07.079Z,5.00
2022-11-16T02:41:37.662Z,5.40
2022-11-16T02:44:29.763Z,4.40
2022-11-16T02:47:05.311Z,5.20
2022-11-16T02:49:36.741Z,5.70
2022-11-16T02:52:05.439Z,3.60
2022-11-16T02:54:34.154Z,3.90
2022-11-16T02:57:07.511Z,3.80
2022-11-16T02:59:51.342Z,5.60
2022-11-16T03:02:43.795Z,3.70
2022-11-16T03:05:22.246Z,4.60
2022-11-16T03:07:59.407Z,5.00
2022-11-16T03:10:46.307Z,3.50
2022-11-16T03:13:15.923Z,3.90
2022-11-16T03:15:44.492Z,3.70
2022-11-16T03:18:17.270Z,4.90
2022-11-16T03:20:45.565Z,5.60
2022-11-16T03:23:14.632Z,4.70
2022-11-16T03:25:52.444Z,4.30
2022-11-16T03:28:29.424Z,5.30
2022-11-16T03:31:15.543Z,5.10
2022-11-16T03:33:51.541Z,4.00
2022-11-16T03:36:35.848Z,5.20
2022-11-16T03:39:11.802Z,3.90
2022-11-16T03:41:44.570Z,4.20
2022-11-16T03:44:15.459Z,5.10
2022-11-16T03:46:47.604Z,5.70
2022-11-16T03:49:16.062Z,3.70
2022-11-16T03:51:43.459Z,4.40
2022-11-16T03:54:10.675Z,3.50
2022-11-16T03:56:40.384Z,3.30
2022-11-16T03:59:09.072Z,4.00
2022-11-16T04:01:39.279Z,5.40
2022-11-16T04:04:33.266Z,4.50
2022-11-16T04:07:21.764Z,4.40
2022-11-16T04:10:08.433Z,3.00
2022-11-16T04:12:55.337Z,5.90
2022-11-16T04:15:41.834Z,3.70
2022-11-16T04:18:29.246Z,4.90
2022-11-16T04:21:15.944Z,3.20
2022-11-16T04:24:07.292Z,3.40
2022-11-16T04:26:55.092Z,5.40
2022-11-16T04:29:23.008Z,3.80
2022-11-16T04:32:12.277Z,4.20
2022-11-16T04:35:00.339Z,4.20
2022-11-16T04:37:48.506Z,3.20
2022-11-16T04:40:23.997Z,4.00
2022-11-16T04:42:52.532Z,3.80
2022-11-16T04:45:42.462Z,4.50
2022-11-16T04:48:11.753Z,4.60
2022-11-16T04:50:40.898Z,4.30
2022-11-16T04:53:11.813Z,3.30
2022-11-16T04:55:46.835Z,4.00
2022-11-16T04:58:14.178Z,3.80
2022-11-16T05:00:41.914Z,3.90
2022-11-16T05:03:10.739Z,3.40
2022-11-16T05:05:45.562Z,4.60
2022-11-16T05:08:16.404Z,4.10
2022-11-16T05:10:47.564Z,3.90
2022-11-16T05:13:15.725Z,4.50
2022-11-16T05:15:46.670Z,3.40
2022-11-16T05:18:17.107Z,3.30
2022-11-16T05:21:04.951Z,5.20
2022-11-16T05:23:55.739Z,3.40
2022-11-16T05:26:25.544Z,3.10
2022-11-16T05:28:53.612Z,4.10
2022-11-16T05:31:22.296Z,3.90
2022-11-16T05:33:49.350Z,4.80
2022-11-16T05:36:20.388Z,3.10
2022-11-16T05:38:56.134Z,3.50
2022-11-16T05:41:29.432Z,3.10
2022-11-16T05:44:03.040Z,4.30
2022-11-16T05:46:31.316Z,3.50
2022-11-16T05:48:59.705Z,5.30
2022-11-16T05:51:27.561Z,7.20
2022-11-16T05:53:57.470Z,3.70
2022-11-16T05:56:25.118Z,4.70
2022-11-16T05:58:58.051Z,4.20
2022-11-16T06:01:28.083Z,7.20
2022-11-16T06:03:58.818Z,4.70
2022-11-16T06:06:29.965Z,3.70
2022-11-16T06:08:58.600Z,3.80
2022-11-16T06:11:31.376Z,3.90
2022-11-16T06:14:01.814Z,4.70
2022-11-16T06:16:28.888Z,2.70
2022-11-16T06:18:58.792Z,4.00
2022-11-16T06:21:27.768Z,3.60
2022-11-16T06:23:57.577Z,3.50
2022-11-16T06:26:25.864Z,4.80
2022-11-16T06:28:55.156Z,4.40
2022-11-16T06:31:25.578Z,8.50
2022-11-16T06:33:54.275Z,3.80
2022-11-16T06:36:28.189Z,4.50
2022-11-16T06:39:03.891Z,9.30
2022-11-16T06:41:40.175Z,4.30
2022-11-16T06:44:08.788Z,4.80
2022-11-16T06:46:37.769Z,4.70
2022-11-16T06:49:05.944Z,4.00
2022-11-16T06:51:33.925Z,7.90
2022-11-16T06:54:05.274Z,5.00
2022-11-16T06:56:39.204Z,6.00
2022-11-16T06:59:08.679Z,3.90
2022-11-16T07:01:37.438Z,5.10
2022-11-16T07:04:12.301Z,7.50
2022-11-16T07:06:41.164Z,5.80
2022-11-16T07:09:15.139Z,6.80
2022-11-16T07:11:45.862Z,5.80
2022-11-16T07:14:16.315Z,5.10
2022-11-16T07:16:46.106Z,5.10
2022-11-16T07:19:16.791Z,3.40
2022-11-16T07:21:45.491Z,3.10
2022-11-16T07:24:25.336Z,3.50
2022-11-16T07:27:00.599Z,5.30
2022-11-16T07:29:38.155Z,5.50
2022-11-16T07:32:28.695Z,3.80
2022-11-16T07:35:03.435Z,4.60
2022-11-16T07:37:34.555Z,3.70
2022-11-16T07:40:11.397Z,4.40
2022-11-16T07:42:38.779Z,4.00
2022-11-16T07:45:24.636Z,4.40
2022-11-16T07:47:58.480Z,5.30
2022-11-16T07:50:44.265Z,6.90
2022-11-16T07:53:11.722Z,6.10
2022-11-16T07:55:39.479Z,7.70
2022-11-16T07:58:07.079Z,5.40
2022-11-16T08:00:39.712Z,4.90
2022-11-16T08:03:16.500Z,4.60
2022-11-16T08:05:59.529Z,8.40
2022-11-16T08:08:26.786Z,6.80
2022-11-16T08:11:00.838Z,6.00
2022-11-16T08:13:33.592Z,4.70
2022-11-16T08:16:03.121Z,6.80
2022-11-16T08:18:34.790Z,5.30
2022-11-16T08:21:11.124Z,4.20
2022-11-16T08:23:45.331Z,4.40
2022-11-16T08:26:22.958Z,3.40
2022-11-16T08:29:01.419Z,5.40
2022-11-16T08:31:32.700Z,6.10
2022-11-16T08:34:11.928Z,10.70
2022-11-16T08:36:49.628Z,7.60
2022-11-16T08:39:19.824Z,5.00
2022-11-16T08:41:48.102Z,6.10
2022-11-16T08:44:16.732Z,7.70
2022-11-16T08:46:46.398Z,6.10
2022-11-16T08:49:24.723Z,7.20
2022-11-16T08:51:52.670Z,8.60
2022-11-16T08:54:21.261Z,8.40
2022-11-16T08:56:49.846Z,5.50
2022-11-16T08:59:17.951Z,6.20
2022-11-16T09:01:53.613Z,8.10
2022-11-16T09:04:23.430Z,9.30
2022-11-16T09:06:56.169Z,8.00
2022-11-16T09:09:23.513Z,7.00
2022-11-16T09:11:52.809Z,6.50
2022-11-16T09:14:23.540Z,9.60
2022-11-16T09:16:51.527Z,11.20
2022-11-16T09:19:21.329Z,9.40
2022-11-16T09:21:48.915Z,6.70
2022-11-16T09:24:17.076Z,6.40
2022-11-16T09:26:44.956Z,8.80
2022-11-16T09:29:15.605Z,9.90
2022-11-16T09:31:43.540Z,11.90
2022-11-16T09:34:11.111Z,8.60
2022-11-16T09:36:38.359Z,13.40
2022-11-16T09:39:52.954Z,9.50
2022-11-16T09:42:47.702Z,12.90
2022-11-16T09:45:41.851Z,10.50
2022-11-16T09:48:12.897Z,10.80
2022-11-16T09:50:43.554Z,13.40
2022-11-16T09:53:24.510Z,11.20
2022-11-16T09:55:54.452Z,8.30
2022-11-16T09:58:28.780Z,9.10
2022-11-16T10:01:08.459Z,10.30
2022-11-16T10:03:43.144Z,12.00
2022-11-16T10:06:42.306Z,11.10
2022-11-16T10:09:12.821Z,7.30
2022-11-16T10:11:49.504Z,8.90
2022-11-16T10:14:49.119Z,12.60
2022-11-16T10:17:25.627Z,8.20
2022-11-16T10:20:17.246Z,11.90
2022-11-16T10:22:50.905Z,8.80
2022-11-16T10:25:24.380Z,9.00
2022-11-16T10:28:04.587Z,14.10
2022-11-16T10:30:39.766Z,11.00
2022-11-16T10:33:14.740Z,8.00
2022-11-16T10:35:54.140Z,8.70
2022-11-16T10:38:31.454Z,9.80
2022-11-16T10:41:06.774Z,7.00
2022-11-16T10:43:41.123Z,7.90
2022-11-16T10:46:22.503Z,11.40
2022-11-16T10:49:17.181Z,10.30
2022-11-16T10:51:44.547Z,11.80
2022-11-16T10:54:16.542Z,14.00
2022-11-16T10:56:57.539Z,13.10
2022-11-16T10:59:49.277Z,8.50
2022-11-16T11:02:35.222Z,10.60
2022-11-16T11:05:14.752Z,9.40
2022-11-16T11:07:47.082Z,12.20
2022-11-16T11:10:31.808Z,11.20
2022-11-16T11:13:26.189Z,14.20
2022-11-16T11:16:15.688Z,16.30
2022-11-16T11:18:43.496Z,13.00
2022-11-16T11:21:26.373Z,8.80
2022-11-16T11:24:10.647Z,8.60
2022-11-16T11:26:50.377Z,7.40
2022-11-16T11:29:27.282Z,13.70
2022-11-16T11:32:00.151Z,9.90
2022-11-16T11:34:33.141Z,11.50
2022-11-16T11:37:03.406Z,10.40
2022-11-16T11:39:38.616Z,9.70
2022-11-16T11:42:15.571Z,9.10
2022-11-16T11:45:00.262Z,10.20
2022-11-16T11:47:57.781Z,8.00
2022-11-16T11:50:48.500Z,11.90
2022-11-16T11:53:44.537Z,10.80
2022-11-16T11:56:14.339Z,12.70
2022-11-16T11:58:43.171Z,12.00
2022-11-16T12:01:34.678Z,14.00
2022-11-16T12:04:23.935Z,11.80
2022-11-16T12:07:18.770Z,10.30
2022-11-16T12:09:59.459Z,9.90
2022-11-16T12:12:40.764Z,9.80
2022-11-16T12:15:26.290Z,10.40
2022-11-16T12:18:11.301Z,9.80
2022-11-16T12:21:12.796Z,7.90
2022-11-16T12:24:06.064Z,9.90
2022-11-16T12:26:36.335Z,10.20
2022-11-16T12:29:24.920Z,6.40
2022-11-16T12:32:28.095Z,8.60
2022-11-16T12:35:20.234Z,6.40
2022-11-16T12:38:13.174Z,8.50
2022-11-16T12:41:21.329Z,8.30
2022-11-16T12:44:03.147Z,8.60
2022-11-16T12:46:53.052Z,8.20
2022-11-16T12:49:36.736Z,10.60
2022-11-16T12:52:24.087Z,7.90
2022-11-16T12:58:08.580Z,11.90
2022-11-16T13:01:22.196Z,45.60
2022-11-16T13:04:19.432Z,62.30
2022-11-16T13:06:55.949Z,76.20
2022-11-16T13:09:38.298Z,66.90
2022-11-16T13:12:15.400Z,49.30
2022-11-16T13:14:53.717Z,52.50
2022-11-16T13:17:38.969Z,60.50
2022-11-16T13:20:19.009Z,58.80
2022-11-16T13:23:16.515Z,60.50
2022-11-16T13:25:53.473Z,64.90
2022-11-16T13:28:51.647Z,66.40
2022-11-16T13:31:38.165Z,49.60
2022-11-16T13:34:16.529Z,54.30
2022-11-16T13:36:51.315Z,51.80
2022-11-16T13:39:22.901Z,53.20
2022-11-16T13:42:06.204Z,55.00
2022-11-16T13:44:35.859Z,55.70
2022-11-16T13:47:07.430Z,56.20
2022-11-16T13:49:50.664Z,44.20
2022-11-16T13:52:23.698Z,46.90
2022-11-16T13:54:56.337Z,47.40
2022-11-16T13:57:36.194Z,47.80
2022-11-16T14:00:03.735Z,47.70
2022-11-16T14:02:37.137Z,51.80
2022-11-16T14:05:16.798Z,48.00
2022-11-16T14:07:50.162Z,51.20
2022-11-16T14:10:39.202Z,44.00
2022-11-16T14:13:42.835Z,40.80
2022-11-16T14:16:24.112Z,42.30
2022-11-16T14:18:53.884Z,40.90
2022-11-16T14:21:34.109Z,46.00
2022-11-16T14:24:19.882Z,43.30
2022-11-16T14:27:18.002Z,43.00
2022-11-16T14:30:13.551Z,40.00
2022-11-16T14:32:50.202Z,39.70
2022-11-16T14:35:30.492Z,37.50
2022-11-16T14:38:02.346Z,42.10
2022-11-16T14:40:43.745Z,43.40
2022-11-16T14:43:48.297Z,43.80
2022-11-16T14:46:36.969Z,40.50
2022-11-16T14:49:05.310Z,38.50
2022-11-16T14:51:41.447Z,31.90
2022-11-16T14:54:20.914Z,38.30
2022-11-16T14:57:06.441Z,35.60
2022-11-16T14:59:34.054Z,40.10
2022-11-16T15:02:13.063Z,38.10
2022-11-16T15:04:40.752Z,37.10
2022-11-16T15:07:08.926Z,42.70
2022-11-16T15:09:43.143Z,29.40
2022-11-16T15:12:36.591Z,28.90
2022-11-16T15:15:29.189Z,31.30
2022-11-16T15:17:59.904Z,31.90
2022-11-16T15:20:32.285Z,34.40
2022-11-16T15:23:01.234Z,37.40
2022-11-16T15:25:36.123Z,36.30
2022-11-16T15:28:19.013Z,36.60
2022-11-16T15:30:50.337Z,27.80
2022-11-16T15:33:22.913Z,32.60
2022-11-16T15:35:50.318Z,32.70
2022-11-16T15:38:24.647Z,28.20
2022-11-16T15:41:04.787Z,30.20
2022-11-16T15:43:45.072Z,38.30
2022-11-16T15:46:25.458Z,35.90
2022-11-16T15:48:54.646Z,38.20
2022-11-16T15:51:31.672Z,25.30
2022-11-16T15:54:55.669Z,25.90
2022-11-16T15:57:25.447Z,29.10
2022-11-16T16:00:00.216Z,26.00
2022-11-16T16:02:30.901Z,33.40
2022-11-16T16:04:58.394Z,31.40
2022-11-16T16:07:43.233Z,31.00
2022-11-16T16:10:19.611Z,33.80
2022-11-16T16:12:56.243Z,27.00
2022-11-16T16:15:36.868Z,25.10
2022-11-16T16:18:13.378Z,27.00
2022-11-16T16:20:47.909Z,28.70
2022-11-16T16:23:16.689Z,26.60
2022-11-16T16:25:50.259Z,30.60
2022-11-16T16:28:17.981Z,27.40
2022-11-16T16:30:45.214Z,28.50
2022-11-16T16:33:20.247Z,27.40
2022-11-16T16:35:49.942Z,22.40
2022-11-16T16:38:17.318Z,24.70
2022-11-16T16:40:44.370Z,27.10
2022-11-16T16:43:11.556Z,27.00
2022-11-16T16:45:44.181Z,26.20
2022-11-16T16:48:14.642Z,28.70
2022-11-16T16:50:41.762Z,28.30
2022-11-16T16:53:12.638Z,23.50
2022-11-16T16:55:40.098Z,21.80
2022-11-16T16:58:07.503Z,23.90
2022-11-16T17:00:35.172Z,25.40
2022-11-16T17:03:03.078Z,26.40
2022-11-16T17:05:34.601Z,25.50
2022-11-16T17:08:02.212Z,27.30
2022-11-16T17:10:30.415Z,28.80
2022-11-16T17:12:57.901Z,26.30
2022-11-16T17:15:25.887Z,22.40
2022-11-16T17:17:53.764Z,20.10
2022-11-16T17:20:21.117Z,23.90
2022-11-16T17:22:48.440Z,25.10
2022-11-16T17:25:16.022Z,25.60
2022-11-16T17:27:43.282Z,24.90
2022-11-16T17:30:11.409Z,26.00
2022-11-16T17:32:38.748Z,23.90
2022-11-16T17:35:06.105Z,19.40
2022-11-16T17:37:33.422Z,22.70
2022-11-16T17:40:00.874Z,22.40
2022-11-16T17:42:28.349Z,21.90
2022-11-16T17:44:55.907Z,20.30
2022-11-16T17:47:23.244Z,23.20
2022-11-16T17:49:51.510Z,22.90
2022-11-16T17:52:19.289Z,19.50
2022-11-16T17:54:46.452Z,19.70
2022-11-16T17:57:14.048Z,20.60
2022-11-16T17:59:41.753Z,18.60
2022-11-16T18:02:12.643Z,20.50
2022-11-16T18:04:42.272Z,21.30
2022-11-16T18:07:11.471Z,24.00
2022-11-16T18:09:38.917Z,24.90
2022-11-16T18:12:06.838Z,18.70
2022-11-16T18:14:34.001Z,17.40
2022-11-16T18:17:05.001Z,17.30
2022-11-16T18:19:34.266Z,18.70
2022-11-16T18:22:01.587Z,20.40
2022-11-16T18:24:29.960Z,19.40
2022-11-16T18:26:58.176Z,20.80
2022-11-16T18:29:25.673Z,23.50
2022-11-16T18:31:53.663Z,18.60
2022-11-16T18:34:21.464Z,16.30
2022-11-16T18:36:51.139Z,17.40
2022-11-16T18:39:19.204Z,20.10
2022-11-16T18:41:54.707Z,19.20
2022-11-16T18:44:23.457Z,18.40
2022-11-16T18:46:51.763Z,19.40
2022-11-16T18:49:19.935Z,20.50
2022-11-16T18:51:48.334Z,17.10
2022-11-16T18:54:15.924Z,17.30
2022-11-16T18:56:43.270Z,18.40
2022-11-16T18:59:12.950Z,21.00
2022-11-16T19:01:41.328Z,19.30
2022-11-16T19:04:11.306Z,18.30
2022-11-16T19:06:38.545Z,21.20
2022-11-16T19:09:10.273Z,18.40
2022-11-16T19:11:38.424Z,15.10
2022-11-16T19:14:08.415Z,17.00
2022-11-16T19:16:43.071Z,16.50
2022-11-16T19:19:15.056Z,15.50
2022-11-16T19:21:43.658Z,18.10
2022-11-16T19:24:10.765Z,18.60
2022-11-16T19:26:38.400Z,21.40
2022-11-16T19:29:05.812Z,19.60
2022-11-16T19:31:34.087Z,14.10
2022-11-16T19:34:04.721Z,14.40
2022-11-16T19:36:33.557Z,18.00
2022-11-16T19:39:01.731Z,16.50
2022-11-16T19:41:30.307Z,15.90
2022-11-16T19:44:02.093Z,17.90
2022-11-16T19:46:32.364Z,16.90
2022-11-16T19:49:02.034Z,20.00
2022-11-16T19:51:31.907Z,14.90
2022-11-16T19:54:00.741Z,13.90
2022-11-16T19:56:28.392Z,17.60
2022-11-16T19:58:55.908Z,16.10
2022-11-16T20:01:28.087Z,17.10
2022-11-16T20:03:59.623Z,18.30
2022-11-16T20:06:30.134Z,15.30
2022-11-16T20:09:01.229Z,16.10
2022-11-16T20:11:34.810Z,15.50
2022-11-16T20:14:07.064Z,15.80
2022-11-16T20:16:39.268Z,16.00
2022-11-16T20:19:08.397Z,16.00
2022-11-16T20:21:41.860Z,15.50
2022-11-16T20:24:15.977Z,14.40
2022-11-16T20:26:46.707Z,17.30
2022-11-16T20:29:18.907Z,15.60
2022-11-16T20:31:47.507Z,15.50
2022-11-16T20:34:17.268Z,10.50
2022-11-16T20:36:46.850Z,15.50
2022-11-16T20:39:16.729Z,14.10
2022-11-16T20:41:44.651Z,14.40
2022-11-16T20:44:22.444Z,16.00
2022-11-16T20:46:52.944Z,16.10
2022-11-16T20:49:21.007Z,15.80
2022-11-16T20:51:50.110Z,13.70
2022-11-16T20:54:17.902Z,13.20
2022-11-16T20:56:45.551Z,12.80
2022-11-16T20:59:13.597Z,13.40
2022-11-16T21:01:45.593Z,15.00
2022-11-16T21:04:13.054Z,15.40
2022-11-16T21:06:41.645Z,15.10
2022-11-16T21:09:16.661Z,15.70
2022-11-16T21:12:03.043Z,16.10
2022-11-16T21:14:31.916Z,14.70
2022-11-16T21:16:59.356Z,12.60
2022-11-16T21:19:27.446Z,14.20
2022-11-16T21:21:54.988Z,15.10
2022-11-16T21:24:24.959Z,14.50
2022-11-16T21:26:52.839Z,13.10
2022-11-16T21:29:26.155Z,16.30
2022-11-16T21:31:53.946Z,15.70
2022-11-16T21:34:21.765Z,11.50
2022-11-16T21:36:49.473Z,13.30
2022-11-16T21:39:17.456Z,13.60
2022-11-16T21:41:44.618Z,13.90
2022-11-16T21:44:12.773Z,13.90
2022-11-16T21:46:40.135Z,16.80
2022-11-16T21:49:08.368Z,14.50
2022-11-16T21:51:35.669Z,12.70
2022-11-16T21:54:04.103Z,12.70
2022-11-16T21:56:31.426Z,11.40
2022-11-16T21:58:59.432Z,14.30
2022-11-16T22:01:48.292Z,13.70
2022-11-16T22:04:34.534Z,11.50
2022-11-16T22:07:22.270Z,13.00
2022-11-16T22:09:49.400Z,13.90
2022-11-16T22:12:17.625Z,14.40
2022-11-16T22:14:44.843Z,13.50
2022-11-16T22:17:12.109Z,10.20
2022-11-16T22:19:39.674Z,12.60
2022-11-16T22:22:07.467Z,12.30
2022-11-16T22:24:34.786Z,13.30
2022-11-16T22:27:02.964Z,13.70
2022-11-16T22:29:30.837Z,13.90
2022-11-16T22:31:58.808Z,13.30
2022-11-16T22:34:26.592Z,10.80
2022-11-16T22:36:56.888Z,11.40
2022-11-16T22:39:24.703Z,11.40
2022-11-16T22:41:53.672Z,11.00
2022-11-16T22:44:21.745Z,11.90
2022-11-16T22:46:50.258Z,15.30
2022-11-16T22:49:19.454Z,10.10
2022-11-16T22:51:47.668Z,13.60
2022-11-16T22:54:16.208Z,11.70
2022-11-16T22:56:44.116Z,11.70
2022-11-16T22:59:11.544Z,10.50
2022-11-16T23:01:39.573Z,10.50
2022-11-16T23:04:07.513Z,11.20
2022-11-16T23:06:34.863Z,12.70
2022-11-16T23:09:03.302Z,15.70
2022-11-16T23:11:49.690Z,10.80
2022-11-16T23:14:36.881Z,10.70
2022-11-16T23:17:04.687Z,9.30
2022-11-16T23:19:52.473Z,9.50
2022-11-16T23:22:41.301Z,11.00
2022-11-16T23:25:31.148Z,12.80
2022-11-16T23:28:01.568Z,11.30
2022-11-16T23:30:29.327Z,10.00
2022-11-16T23:32:56.563Z,10.90
2022-11-16T23:35:23.921Z,10.90
2022-11-16T23:37:58.939Z,10.00
2022-11-16T23:40:28.754Z,9.10
2022-11-16T23:43:15.437Z,9.90
2022-11-16T23:45:44.480Z,9.20
2022-11-16T23:48:14.259Z,10.90
2022-11-16T23:50:42.032Z,9.90
2022-11-16T23:53:10.492Z,10.30
2022-11-16T23:55:39.366Z,10.50
2022-11-16T23:58:11.135Z,10.30
